Time;durP1;ratioP1;P1;durP2;ratioP2;P2;SDS_P1;SDS_P2;PMS_P1;PMS_P2;Temp;Humidity;BMP_temperature;BMP_pressure;BME280_temperature;BME280_humidity;BME280_pressure;Samples;Min_cycle;Max_cycle;Signal;HPM_P1;HPM_P2
2022/10/27 00:01:50;;;;;;;3.97;1.48;;;;;;;;;;6252408;22;20334;-43
2022/10/27 00:04:17;;;;;;;7.05;1.60;;;;;;;;;;6278822;22;20353;-43
2022/10/27 00:06:43;;;;;;;2.03;0.63;;;;;;;;;;6281671;22;20016;-43
2022/10/27 00:09:10;;;;;;;2.43;1.33;;;;;;;;;;6280007;22;20016;-44
2022/10/27 00:11:36;;;;;;;2.03;0.82;;;;;;;;;;6258785;22;20022;-43
2022/10/27 00:14:04;;;;;;;7.85;2.38;;;;;;;;;;6281170;22;20011;-44
2022/10/27 00:16:31;;;;;;;9.25;2.05;;;;;;;;;;6280539;22;20842;-43
2022/10/27 00:18:57;;;;;;;9.63;1.48;;;;;;;;;;6284414;22;20034;-47
2022/10/27 00:21:24;;;;;;;3.70;1.20;;;;;;;;;;6258464;22;20022;-43
2022/10/27 00:23:51;;;;;;;3.83;1.05;;;;;;;;;;6284666;22;20015;-43
2022/10/27 00:26:18;;;;;;;11.27;2.25;;;;;;;;;;6255890;22;20046;-44
2022/10/27 00:28:45;;;;;;;3.60;0.98;;;;;;;;;;6253992;22;20015;-43
2022/10/27 00:31:13;;;;;;;6.13;1.77;;;;;;;;;;6257196;22;20019;-43
2022/10/27 00:33:40;;;;;;;3.10;0.93;;;;;;;;;;6284562;22;20011;-43
2022/10/27 00:36:08;;;;;;;4.28;1.52;;;;;;;;;;6280564;22;20504;-44
2022/10/27 00:38:34;;;;;;;2.65;0.68;;;;;;;;;;6285596;22;20192;-43
2022/10/27 00:41:01;;;;;;;2.33;0.93;;;;;;;;;;6275445;22;20493;-42
2022/10/27 00:43:29;;;;;;;1.92;0.50;;;;;;;;;;6285815;22;20430;-47
2022/10/27 00:45:57;;;;;;;2.13;0.50;;;;;;;;;;6280358;22;20367;-43
2022/10/27 00:48:25;;;;;;;6.57;2.03;;;;;;;;;;6286709;22;20405;-43
2022/10/27 00:50:51;;;;;;;8.82;1.27;;;;;;;;;;6281703;22;20061;-43
2022/10/27 00:53:18;;;;;;;1.77;0.70;;;;;;;;;;6284710;22;20015;-43
2022/10/27 00:55:44;;;;;;;3.17;1.20;;;;;;;;;;6282868;22;20476;-43
2022/10/27 00:58:14;;;;;;;3.63;1.03;;;;;;;;;;6281308;22;20011;-44
2022/10/27 01:00:42;;;;;;;2.78;1.05;;;;;;;;;;6284344;22;20057;-46
2022/10/27 01:03:09;;;;;;;4.70;2.13;;;;;;;;;;6245791;22;20033;-44
2022/10/27 01:05:38;;;;;;;4.60;1.20;;;;;;;;;;6287197;22;20634;-44
2022/10/27 01:08:06;;;;;;;2.45;0.75;;;;;;;;;;6281776;22;20458;-44
2022/10/27 01:10:33;;;;;;;3.00;0.97;;;;;;;;;;6255104;22;20185;-44
2022/10/27 01:13:00;;;;;;;8.90;1.45;;;;;;;;;;6257209;22;20007;-44
2022/10/27 01:15:29;;;;;;;5.45;0.85;;;;;;;;;;6280860;22;20050;-44
2022/10/27 01:17:58;;;;;;;3.47;1.55;;;;;;;;;;6283881;22;20015;-46
2022/10/27 01:20:46;;;;;;;2.60;0.70;;;;;;;;;;6283958;22;20023;-44
2022/10/27 01:23:19;;;;;;;6.03;1.60;;;;;;;;;;6280718;22;20193;-43
2022/10/27 01:26:04;;;;;;;3.80;1.10;;;;;;;;;;6285835;22;20018;-43
2022/10/27 01:28:38;;;;;;;4.50;1.02;;;;;;;;;;6283131;22;20635;-43
2022/10/27 01:31:09;;;;;;;2.38;0.77;;;;;;;;;;6253437;22;20113;-44
2022/10/27 01:33:38;;;;;;;7.68;1.05;;;;;;;;;;6284852;22;20495;-44
2022/10/27 01:36:06;;;;;;;2.30;0.80;;;;;;;;;;6270932;22;20012;-46
2022/10/27 01:38:33;;;;;;;2.92;1.17;;;;;;;;;;6284376;22;20023;-45
2022/10/27 01:41:02;;;;;;;4.85;1.15;;;;;;;;;;6260758;22;20023;-43
2022/10/27 01:43:30;;;;;;;3.80;1.30;;;;;;;;;;6286121;22;20069;-46
2022/10/27 01:45:58;;;;;;;2.25;0.70;;;;;;;;;;6256961;22;20015;-44
2022/10/27 01:48:26;;;;;;;4.10;0.70;;;;;;;;;;6288941;22;20510;-47
2022/10/27 01:50:53;;;;;;;3.95;0.93;;;;;;;;;;6256660;22;20034;-45
2022/10/27 01:53:19;;;;;;;7.43;3.10;;;;;;;;;;6258565;22;20019;-46
2022/10/27 01:55:50;;;;;;;2.92;0.80;;;;;;;;;;6288916;22;20080;-47
2022/10/27 01:58:34;;;;;;;2.67;1.17;;;;;;;;;;6282646;22;20416;-43
2022/10/27 02:01:07;;;;;;;4.00;1.93;;;;;;;;;;6253664;22;20527;-43
2022/10/27 02:03:38;;;;;;;2.90;1.27;;;;;;;;;;6291274;22;20015;-45
2022/10/27 02:06:08;;;;;;;3.17;1.58;;;;;;;;;;6253473;22;20080;-44
2022/10/27 02:08:38;;;;;;;3.42;1.35;;;;;;;;;;6287435;22;20011;-43
2022/10/27 02:11:05;;;;;;;3.65;1.42;;;;;;;;;;6285346;22;20011;-43
2022/10/27 02:13:32;;;;;;;2.50;0.70;;;;;;;;;;6292246;22;20069;-44
2022/10/27 02:16:01;;;;;;;5.22;2.50;;;;;;;;;;6256122;22;20011;-43
2022/10/27 02:18:29;;;;;;;5.40;1.40;;;;;;;;;;6293903;22;20407;-45
2022/10/27 02:20:59;;;;;;;3.72;1.90;;;;;;;;;;6280570;22;20535;-43
2022/10/27 02:23:28;;;;;;;2.65;0.95;;;;;;;;;;6290462;22;20019;-43
2022/10/27 02:25:57;;;;;;;5.23;2.10;;;;;;;;;;6285238;22;20019;-45
2022/10/27 02:28:26;;;;;;;3.78;1.08;;;;;;;;;;6287727;22;20478;-44
2022/10/27 02:30:54;;;;;;;3.83;1.85;;;;;;;;;;6255453;22;20019;-43
2022/10/27 02:33:21;;;;;;;9.60;1.38;;;;;;;;;;6287395;22;20085;-44
2022/10/27 02:35:47;;;;;;;2.88;0.93;;;;;;;;;;6289151;22;20064;-44
2022/10/27 02:38:15;;;;;;;2.90;1.07;;;;;;;;;;6279849;22;20023;-43
2022/10/27 02:40:42;;;;;;;4.30;1.77;;;;;;;;;;6262631;22;20015;-43
2022/10/27 02:43:09;;;;;;;7.95;1.30;;;;;;;;;;6290570;22;20016;-44
2022/10/27 02:45:35;;;;;;;2.10;0.75;;;;;;;;;;6284135;22;20019;-43
2022/10/27 02:48:02;;;;;;;2.90;1.00;;;;;;;;;;6288604;22;20042;-43
2022/10/27 02:50:28;;;;;;;5.00;2.27;;;;;;;;;;6283590;22;20738;-47
2022/10/27 02:52:55;;;;;;;3.53;1.27;;;;;;;;;;6290049;22;20026;-43
2022/10/27 02:55:23;;;;;;;4.32;1.63;;;;;;;;;;6280323;22;20065;-44
2022/10/27 02:57:49;;;;;;;3.25;1.63;;;;;;;;;;6287434;22;20015;-43
2022/10/27 03:00:17;;;;;;;3.10;1.50;;;;;;;;;;6282050;22;20721;-43
2022/10/27 03:02:43;;;;;;;3.03;1.30;;;;;;;;;;6288362;22;20015;-43
2022/10/27 03:05:09;;;;;;;5.07;1.98;;;;;;;;;;6281022;22;20011;-44
2022/10/27 03:07:36;;;;;;;3.50;1.35;;;;;;;;;;6284947;22;20011;-44
2022/10/27 03:10:03;;;;;;;2.92;0.93;;;;;;;;;;6282943;22;20015;-45
2022/10/27 03:12:31;;;;;;;2.90;1.30;;;;;;;;;;6288902;22;20015;-43
2022/10/27 03:14:57;;;;;;;3.27;1.27;;;;;;;;;;6280895;22;20468;-43
2022/10/27 03:17:24;;;;;;;4.53;2.22;;;;;;;;;;6287384;22;20011;-43
2022/10/27 03:19:51;;;;;;;3.45;1.52;;;;;;;;;;6285306;22;20024;-44
2022/10/27 03:22:18;;;;;;;5.35;1.17;;;;;;;;;;6281100;22;20019;-43
2022/10/27 03:24:44;;;;;;;3.65;1.80;;;;;;;;;;6281982;22;20762;-43
2022/10/27 03:27:11;;;;;;;5.43;1.30;;;;;;;;;;6281351;22;20069;-43
2022/10/27 03:29:38;;;;;;;4.28;1.70;;;;;;;;;;6283285;22;20064;-43
2022/10/27 03:32:05;;;;;;;4.63;1.70;;;;;;;;;;6283578;22;20026;-43
2022/10/27 03:34:31;;;;;;;3.47;1.40;;;;;;;;;;6286222;22;20512;-44
2022/10/27 03:36:58;;;;;;;4.38;2.13;;;;;;;;;;6278490;22;20015;-46
2022/10/27 03:39:24;;;;;;;3.23;1.23;;;;;;;;;;6283829;22;20444;-44
2022/10/27 03:41:51;;;;;;;4.68;1.45;;;;;;;;;;6286143;22;20019;-45
2022/10/27 03:44:17;;;;;;;4.60;1.70;;;;;;;;;;6276345;22;20077;-45
2022/10/27 03:46:46;;;;;;;4.07;1.50;;;;;;;;;;6285480;22;20496;-43
2022/10/27 03:49:13;;;;;;;6.63;1.90;;;;;;;;;;6282664;22;20065;-45
2022/10/27 03:51:39;;;;;;;3.90;1.40;;;;;;;;;;6285555;22;20015;-47
2022/10/27 03:54:06;;;;;;;5.28;1.45;;;;;;;;;;6254654;22;20100;-45
2022/10/27 03:56:32;;;;;;;4.25;2.00;;;;;;;;;;6282708;22;20031;-45
2022/10/27 03:58:59;;;;;;;4.13;1.50;;;;;;;;;;6283579;22;20064;-45
2022/10/27 04:01:25;;;;;;;3.30;1.38;;;;;;;;;;6285595;22;20414;-43
2022/10/27 04:03:53;;;;;;;2.77;1.10;;;;;;;;;;6281197;22;20346;-44
2022/10/27 04:06:20;;;;;;;3.00;1.10;;;;;;;;;;6284999;22;20514;-43
2022/10/27 04:08:46;;;;;;;3.88;1.60;;;;;;;;;;6285703;22;20069;-45
2022/10/27 04:11:13;;;;;;;3.13;1.17;;;;;;;;;;6282648;22;20100;-44
2022/10/27 04:13:39;;;;;;;6.80;1.88;;;;;;;;;;6287975;22;20019;-43
2022/10/27 04:16:06;;;;;;;4.13;2.00;;;;;;;;;;6276220;22;20019;-43
2022/10/27 04:18:33;;;;;;;3.67;1.50;;;;;;;;;;6289500;22;20011;-47
2022/10/27 04:21:01;;;;;;;3.80;1.27;;;;;;;;;;6281368;22;20084;-44
2022/10/27 04:23:28;;;;;;;3.45;1.45;;;;;;;;;;6286875;22;20039;-44
2022/10/27 04:25:54;;;;;;;4.07;1.63;;;;;;;;;;6255733;22;20590;-44
2022/10/27 04:28:21;;;;;;;6.67;2.10;;;;;;;;;;6284053;22;20011;-43
2022/10/27 04:30:47;;;;;;;3.03;1.17;;;;;;;;;;6283255;22;20381;-44
2022/10/27 04:33:14;;;;;;;5.30;2.90;;;;;;;;;;6280841;22;20011;-46
2022/10/27 04:35:40;;;;;;;4.50;1.60;;;;;;;;;;6287421;22;20494;-44
2022/10/27 04:38:08;;;;;;;5.55;2.70;;;;;;;;;;6272815;22;20488;-42
2022/10/27 04:40:35;;;;;;;5.50;2.53;;;;;;;;;;6259279;22;20121;-44
2022/10/27 04:43:01;;;;;;;4.07;2.03;;;;;;;;;;6282577;22;20019;-44
2022/10/27 04:45:28;;;;;;;4.72;2.35;;;;;;;;;;6285254;22;20041;-43
2022/10/27 04:47:54;;;;;;;3.25;1.38;;;;;;;;;;6283409;22;20511;-52
2022/10/27 04:50:22;;;;;;;4.85;2.20;;;;;;;;;;6283265;22;20426;-46
2022/10/27 04:52:55;;;;;;;6.83;2.30;;;;;;;;;;6282102;22;20084;-44
2022/10/27 04:55:23;;;;;;;3.97;2.00;;;;;;;;;;6283419;22;20359;-44
2022/10/27 04:57:50;;;;;;;4.15;2.30;;;;;;;;;;6282733;22;20015;-44
2022/10/27 05:00:16;;;;;;;5.28;2.70;;;;;;;;;;6282194;22;20469;-43
2022/10/27 05:02:43;;;;;;;5.93;2.40;;;;;;;;;;6283803;22;20011;-43
2022/10/27 05:05:10;;;;;;;4.80;2.10;;;;;;;;;;6258906;22;20370;-47
2022/10/27 05:07:36;;;;;;;4.82;2.75;;;;;;;;;;6284389;22;20465;-43
2022/10/27 05:10:03;;;;;;;8.38;3.05;;;;;;;;;;6286516;22;20069;-44
2022/10/27 05:12:31;;;;;;;4.07;1.98;;;;;;;;;;6279604;22;20319;-45
2022/10/27 05:14:57;;;;;;;5.88;3.00;;;;;;;;;;6277133;22;20587;-43
2022/10/27 05:17:23;;;;;;;5.53;3.33;;;;;;;;;;6286789;22;20396;-44
2022/10/27 05:19:50;;;;;;;4.72;2.10;;;;;;;;;;6277659;22;20527;-43
2022/10/27 05:22:16;;;;;;;3.63;1.88;;;;;;;;;;6279534;22;20838;-44
2022/10/27 05:24:43;;;;;;;6.95;2.42;;;;;;;;;;6280006;22;20413;-44
2022/10/27 05:27:09;;;;;;;4.32;2.05;;;;;;;;;;6279833;22;20015;-44
2022/10/27 05:29:37;;;;;;;5.77;2.83;;;;;;;;;;6273658;22;20019;-43
2022/10/27 05:32:04;;;;;;;8.23;3.20;;;;;;;;;;6282024;22;20015;-44
2022/10/27 05:34:30;;;;;;;6.85;2.63;;;;;;;;;;6278918;22;20019;-43
2022/10/27 05:36:57;;;;;;;5.28;2.42;;;;;;;;;;6271359;22;20019;-43
2022/10/27 05:39:23;;;;;;;11.35;2.92;;;;;;;;;;6280041;22;20026;-43
2022/10/27 05:41:50;;;;;;;4.10;1.97;;;;;;;;;;6277597;22;20558;-43
2022/10/27 05:44:16;;;;;;;5.35;2.35;;;;;;;;;;6280754;22;20085;-45
2022/10/27 05:46:44;;;;;;;5.38;2.95;;;;;;;;;;6283430;22;20095;-43
2022/10/27 05:49:11;;;;;;;5.38;2.70;;;;;;;;;;6277029;22;20086;-48
2022/10/27 05:51:37;;;;;;;10.60;2.92;;;;;;;;;;6282438;22;20015;-46
2022/10/27 05:54:04;;;;;;;4.37;2.23;;;;;;;;;;6277546;22;20016;-43
2022/10/27 05:56:31;;;;;;;5.00;2.67;;;;;;;;;;6278794;22;20042;-46
2022/10/27 05:58:57;;;;;;;3.85;2.20;;;;;;;;;;6276786;22;20450;-42
2022/10/27 06:01:24;;;;;;;4.78;2.03;;;;;;;;;;6277408;22;20072;-43
2022/10/27 06:03:51;;;;;;;5.60;3.58;;;;;;;;;;6280563;22;20015;-43
2022/10/27 06:06:18;;;;;;;4.47;2.07;;;;;;;;;;6278197;22;20698;-45
2022/10/27 06:08:44;;;;;;;8.88;2.70;;;;;;;;;;6280797;22;20346;-43
2022/10/27 06:11:11;;;;;;;5.60;2.67;;;;;;;;;;6278367;22;20015;-43
2022/10/27 06:13:37;;;;;;;4.63;1.98;;;;;;;;;;6280988;22;20489;-43
2022/10/27 06:16:04;;;;;;;4.78;2.15;;;;;;;;;;6278073;22;20015;-43
2022/10/27 06:18:31;;;;;;;3.77;2.30;;;;;;;;;;6280630;22;20393;-43
2022/10/27 06:20:58;;;;;;;8.73;2.60;;;;;;;;;;6276483;22;20023;-45
2022/10/27 06:23:25;;;;;;;5.68;2.38;;;;;;;;;;6280906;22;20011;-43
2022/10/27 06:25:51;;;;;;;5.75;2.65;;;;;;;;;;6278393;22;20081;-43
2022/10/27 06:28:18;;;;;;;5.32;2.55;;;;;;;;;;6285058;22;20074;-43
2022/10/27 06:30:44;;;;;;;5.47;2.17;;;;;;;;;;6284224;22;20023;-45
2022/10/27 06:33:11;;;;;;;3.85;1.80;;;;;;;;;;6287914;22;20441;-45
2022/10/27 06:35:37;;;;;;;3.83;1.85;;;;;;;;;;6282203;22;20061;-46
2022/10/27 06:38:05;;;;;;;5.20;2.92;;;;;;;;;;6288601;22;20505;-46
2022/10/27 06:40:32;;;;;;;4.43;2.28;;;;;;;;;;6285441;22;20030;-46
2022/10/27 06:42:58;;;;;;;6.47;1.93;;;;;;;;;;6281325;22;20019;-43
2022/10/27 06:45:25;;;;;;;4.68;2.00;;;;;;;;;;6286657;22;20011;-43
2022/10/27 06:48:00;;;;;;;5.18;1.90;;;;;;;;;;6274638;22;20038;-45
2022/10/27 06:50:27;;;;;;;9.63;2.80;;;;;;;;;;6283764;22;20074;-43
2022/10/27 06:52:53;;;;;;;4.03;2.00;;;;;;;;;;6286229;22;20477;-43
2022/10/27 06:55:21;;;;;;;4.90;2.00;;;;;;;;;;6253652;22;20019;-46
2022/10/27 06:57:48;;;;;;;4.35;2.08;;;;;;;;;;6289268;22;20018;-43
2022/10/27 07:00:14;;;;;;;5.05;2.65;;;;;;;;;;6280661;22;20186;-44
2022/10/27 07:02:41;;;;;;;5.03;2.60;;;;;;;;;;6289486;22;20015;-44
2022/10/27 07:05:08;;;;;;;3.97;2.20;;;;;;;;;;6282134;22;20446;-43
2022/10/27 07:07:35;;;;;;;6.20;1.70;;;;;;;;;;6284843;22;20015;-44
2022/10/27 07:10:02;;;;;;;5.85;2.58;;;;;;;;;;6283169;22;20022;-44
2022/10/27 07:12:29;;;;;;;4.40;1.88;;;;;;;;;;6261834;22;20015;-43
2022/10/27 07:14:56;;;;;;;3.85;1.73;;;;;;;;;;6253574;22;20077;-44
2022/10/27 07:17:23;;;;;;;3.50;2.00;;;;;;;;;;6286935;22;20029;-44
2022/10/27 07:19:49;;;;;;;4.63;2.47;;;;;;;;;;6282639;22;20023;-43
2022/10/27 07:22:15;;;;;;;5.43;1.33;;;;;;;;;;6284809;22;20438;-43
2022/10/27 07:24:42;;;;;;;4.00;1.80;;;;;;;;;;6279623;22;20011;-45
2022/10/27 07:27:08;;;;;;;3.58;1.17;;;;;;;;;;6277741;22;20015;-45
2022/10/27 07:29:36;;;;;;;3.08;1.25;;;;;;;;;;6278502;22;20072;-46
2022/10/27 07:32:03;;;;;;;3.00;1.17;;;;;;;;;;6285045;22;20011;-44
2022/10/27 07:34:29;;;;;;;4.07;1.88;;;;;;;;;;6271443;22;20042;-45
2022/10/27 07:36:56;;;;;;;3.08;1.13;;;;;;;;;;6258398;22;20023;-47
2022/10/27 07:39:23;;;;;;;3.45;1.27;;;;;;;;;;6258322;22;20088;-49
2022/10/27 07:41:49;;;;;;;3.25;1.10;;;;;;;;;;6260321;22;20405;-47
2022/10/27 07:44:16;;;;;;;2.70;0.97;;;;;;;;;;6278904;22;20333;-48
2022/10/27 07:46:44;;;;;;;3.60;1.65;;;;;;;;;;6283486;22;20064;-46
2022/10/27 07:49:10;;;;;;;2.70;0.98;;;;;;;;;;6283709;22;20018;-44
2022/10/27 07:51:37;;;;;;;2.83;0.88;;;;;;;;;;6282508;22;20019;-47
2022/10/27 07:54:03;;;;;;;4.57;1.35;;;;;;;;;;6283598;22;20018;-44
2022/10/27 07:56:31;;;;;;;4.00;1.40;;;;;;;;;;6285528;22;20084;-44
2022/10/27 07:58:58;;;;;;;2.63;0.93;;;;;;;;;;6278275;22;20019;-45
2022/10/27 08:01:24;;;;;;;3.03;1.42;;;;;;;;;;6279966;22;20029;-43
2022/10/27 08:03:52;;;;;;;3.35;1.00;;;;;;;;;;6280880;22;20026;-44
2022/10/27 08:06:19;;;;;;;2.95;0.88;;;;;;;;;;6243083;22;20015;-43
2022/10/27 08:08:45;;;;;;;3.17;1.43;;;;;;;;;;6280534;22;20077;-46
2022/10/27 08:11:12;;;;;;;2.20;0.85;;;;;;;;;;6274275;22;20077;-46
2022/10/27 08:13:39;;;;;;;3.60;1.08;;;;;;;;;;6280602;22;20012;-48
2022/10/27 08:16:05;;;;;;;1.98;0.98;;;;;;;;;;6280813;22;20019;-45
2022/10/27 08:18:32;;;;;;;2.75;0.93;;;;;;;;;;6267620;22;20019;-46
2022/10/27 08:21:00;;;;;;;2.30;0.80;;;;;;;;;;6257023;22;20364;-47
2022/10/27 08:23:26;;;;;;;1.90;0.57;;;;;;;;;;6267101;22;20047;-43
2022/10/27 08:25:53;;;;;;;2.45;0.75;;;;;;;;;;6269171;22;20007;-43
2022/10/27 08:28:19;;;;;;;4.82;0.93;;;;;;;;;;6265106;22;20073;-43
2022/10/27 08:30:46;;;;;;;2.25;0.65;;;;;;;;;;6267389;22;20019;-43
2022/10/27 08:33:12;;;;;;;2.97;1.37;;;;;;;;;;6266465;22;20058;-46
2022/10/27 08:35:39;;;;;;;2.08;0.60;;;;;;;;;;6243232;22;20076;-42
2022/10/27 08:38:09;;;;;;;4.07;1.15;;;;;;;;;;6261536;22;20015;-43
2022/10/27 08:40:37;;;;;;;3.15;0.40;;;;;;;;;;6272934;22;20019;-46
2022/10/27 08:43:13;;;;;;;7.60;1.63;;;;;;;;;;6238540;22;20488;-43
2022/10/27 08:45:45;;;;;;;1.80;0.50;;;;;;;;;;6269113;22;20060;-43
2022/10/27 08:48:12;;;;;;;2.10;0.50;;;;;;;;;;6265830;22;20015;-43
2022/10/27 08:50:41;;;;;;;2.15;0.80;;;;;;;;;;6264850;22;20788;-43
2022/10/27 08:53:12;;;;;;;2.20;0.65;;;;;;;;;;6270558;22;20071;-44
2022/10/27 08:55:40;;;;;;;2.00;0.52;;;;;;;;;;6239628;22;20114;-44
2022/10/27 08:58:10;;;;;;;2.40;0.90;;;;;;;;;;6262985;22;20345;-43
2022/10/27 09:00:42;;;;;;;2.70;0.77;;;;;;;;;;6263433;22;20381;-43
2022/10/27 09:03:24;;;;;;;2.15;0.57;;;;;;;;;;6269202;22;20217;-46
2022/10/27 09:05:56;;;;;;;2.15;0.65;;;;;;;;;;6264238;22;20011;-44
2022/10/27 09:08:29;;;;;;;5.75;1.10;;;;;;;;;;6259096;22;20397;-44
2022/10/27 09:11:00;;;;;;;2.93;0.67;;;;;;;;;;6267649;22;20559;-46
2022/10/27 09:13:35;;;;;;;2.67;0.75;;;;;;;;;;6264763;22;20015;-45
2022/10/27 09:16:02;;;;;;;4.70;1.33;;;;;;;;;;6267644;22;20116;-46
2022/10/27 09:18:30;;;;;;;4.38;1.08;;;;;;;;;;6262551;22;20011;-43
2022/10/27 09:20:57;;;;;;;2.30;0.60;;;;;;;;;;6266107;22;20023;-44
2022/10/27 09:23:28;;;;;;;2.10;0.57;;;;;;;;;;6267634;22;20023;-45
2022/10/27 09:25:57;;;;;;;3.38;1.10;;;;;;;;;;6270740;22;20016;-45
2022/10/27 09:28:27;;;;;;;3.15;1.17;;;;;;;;;;6255839;22;20015;-46
2022/10/27 09:30:54;;;;;;;2.83;0.90;;;;;;;;;;6270781;22;20462;-44
2022/10/27 09:33:22;;;;;;;3.10;1.20;;;;;;;;;;6257656;22;20507;-43
2022/10/27 09:35:50;;;;;;;2.33;0.90;;;;;;;;;;6242897;22;20011;-46
2022/10/27 09:38:19;;;;;;;2.45;0.60;;;;;;;;;;6258173;22;20583;-43
2022/10/27 09:40:47;;;;;;;2.80;1.00;;;;;;;;;;6271067;22;20293;-43
2022/10/27 09:43:13;;;;;;;3.25;1.23;;;;;;;;;;6265806;22;20080;-44
2022/10/27 09:45:42;;;;;;;2.60;1.00;;;;;;;;;;6269826;22;20019;-43
2022/10/27 09:48:13;;;;;;;3.20;1.17;;;;;;;;;;6262738;22;20099;-44
2022/10/27 09:50:42;;;;;;;4.60;0.93;;;;;;;;;;6266450;22;20446;-44
2022/10/27 09:53:35;;;;;;;3.08;0.90;;;;;;;;;;6241756;22;20012;-44
2022/10/27 09:56:04;;;;;;;3.92;1.58;;;;;;;;;;6267592;22;20022;-46
2022/10/27 09:58:31;;;;;;;5.05;1.50;;;;;;;;;;6259394;22;20011;-46
2022/10/27 10:00:57;;;;;;;3.27;1.00;;;;;;;;;;6266143;22;20599;-43
2022/10/27 10:03:24;;;;;;;2.22;0.50;;;;;;;;;;6271912;22;20011;-43
2022/10/27 10:05:58;;;;;;;5.40;1.52;;;;;;;;;;6270684;22;20077;-44
2022/10/27 10:08:25;;;;;;;9.52;1.35;;;;;;;;;;6262194;22;20015;-46
2022/10/27 10:10:56;;;;;;;2.63;0.77;;;;;;;;;;6266414;22;20030;-44
2022/10/27 10:13:24;;;;;;;10.37;1.20;;;;;;;;;;6270592;22;21014;-44
2022/10/27 10:16:04;;;;;;;2.95;0.80;;;;;;;;;;6271616;22;20012;-43
2022/10/27 10:18:31;;;;;;;2.50;0.90;;;;;;;;;;6254784;22;20026;-43
2022/10/27 10:20:59;;;;;;;2.15;0.77;;;;;;;;;;6269835;22;20027;-43
2022/10/27 10:23:27;;;;;;;2.42;0.75;;;;;;;;;;6264144;22;20023;-45
2022/10/27 10:25:56;;;;;;;8.90;1.10;;;;;;;;;;6271815;22;20015;-44
2022/10/27 10:28:27;;;;;;;2.72;0.93;;;;;;;;;;6262074;22;20011;-43
2022/10/27 10:30:55;;;;;;;3.22;1.13;;;;;;;;;;6274793;22;20015;-43
2022/10/27 10:33:24;;;;;;;2.67;0.77;;;;;;;;;;6259983;22;20194;-43
2022/10/27 10:35:51;;;;;;;2.60;0.77;;;;;;;;;;6270630;22;20381;-45
2022/10/27 10:38:33;;;;;;;2.30;0.77;;;;;;;;;;6259129;22;20372;-45
2022/10/27 10:41:10;;;;;;;2.80;1.17;;;;;;;;;;6238466;22;20105;-47
2022/10/27 10:43:38;;;;;;;3.20;1.20;;;;;;;;;;6238761;22;20432;-47
2022/10/27 10:46:05;;;;;;;2.35;0.77;;;;;;;;;;6267260;22;20090;-43
2022/10/27 10:48:33;;;;;;;2.33;0.80;;;;;;;;;;6265791;22;20062;-46
2022/10/27 10:51:00;;;;;;;2.13;0.60;;;;;;;;;;6267009;22;20011;-47
2022/10/27 10:53:28;;;;;;;2.47;0.77;;;;;;;;;;6242815;22;20023;-43
2022/10/27 10:55:56;;;;;;;4.72;1.00;;;;;;;;;;6241841;22;20074;-43
2022/10/27 10:58:25;;;;;;;2.90;1.15;;;;;;;;;;6266832;22;20425;-46
2022/10/27 11:00:58;;;;;;;2.28;0.68;;;;;;;;;;6268561;22;20014;-45
2022/10/27 11:03:26;;;;;;;2.47;0.90;;;;;;;;;;6271289;22;20061;-47
2022/10/27 11:05:55;;;;;;;2.78;1.00;;;;;;;;;;6268338;22;20098;-46
2022/10/27 11:08:23;;;;;;;3.15;1.42;;;;;;;;;;6261432;22;20085;-45
2022/10/27 11:10:50;;;;;;;2.60;0.80;;;;;;;;;;6269299;22;20127;-44
2022/10/27 11:13:18;;;;;;;3.08;1.20;;;;;;;;;;6257758;22;20475;-47
2022/10/27 11:15:48;;;;;;;2.00;0.60;;;;;;;;;;6272311;22;20015;-47
2022/10/27 11:18:19;;;;;;;2.95;0.82;;;;;;;;;;6257456;22;20489;-45
2022/10/27 11:20:47;;;;;;;3.10;1.10;;;;;;;;;;6267405;22;20627;-44
2022/10/27 11:23:16;;;;;;;3.22;1.30;;;;;;;;;;6271495;22;20038;-43
2022/10/27 11:25:44;;;;;;;3.75;1.55;;;;;;;;;;6267099;22;20072;-44
2022/10/27 11:28:15;;;;;;;3.17;1.20;;;;;;;;;;6257586;22;20015;-44
2022/10/27 11:30:45;;;;;;;4.07;1.38;;;;;;;;;;6270034;22;20018;-43
2022/10/27 11:33:19;;;;;;;3.42;1.30;;;;;;;;;;6265436;22;20022;-44
2022/10/27 11:35:49;;;;;;;3.22;0.90;;;;;;;;;;6265851;22;20026;-43
2022/10/27 11:38:19;;;;;;;3.55;1.00;;;;;;;;;;6259236;22;20339;-46
2022/10/27 11:40:48;;;;;;;2.50;0.73;;;;;;;;;;6236316;22;20026;-44
2022/10/27 11:43:18;;;;;;;2.60;0.80;;;;;;;;;;6268668;22;20019;-45
2022/10/27 11:45:48;;;;;;;2.35;0.70;;;;;;;;;;6266669;22;20372;-43
2022/10/27 11:48:18;;;;;;;2.97;1.08;;;;;;;;;;6234985;22;20908;-43
2022/10/27 11:50:47;;;;;;;2.95;1.08;;;;;;;;;;6267054;22;20015;-46
2022/10/27 11:53:13;;;;;;;2.40;0.70;;;;;;;;;;6269105;22;20027;-45
2022/10/27 11:55:45;;;;;;;2.35;0.88;;;;;;;;;;6266651;22;20476;-44
2022/10/27 11:58:14;;;;;;;6.63;0.95;;;;;;;;;;6260760;22;20479;-48
2022/10/27 12:00:46;;;;;;;2.97;0.65;;;;;;;;;;6268268;22;20038;-45
2022/10/27 12:03:32;;;;;;;1.88;0.43;;;;;;;;;;6261006;22;20537;-43
2022/10/27 12:06:00;;;;;;;2.23;0.63;;;;;;;;;;6263078;22;20011;-45
2022/10/27 12:08:36;;;;;;;2.95;0.90;;;;;;;;;;6258226;22;20019;-45
2022/10/27 12:11:07;;;;;;;2.40;0.90;;;;;;;;;;6267878;22;20015;-43
2022/10/27 12:13:37;;;;;;;2.60;0.80;;;;;;;;;;6270139;22;20034;-43
2022/10/27 12:16:07;;;;;;;2.33;0.70;;;;;;;;;;6272080;22;20417;-45
2022/10/27 12:18:38;;;;;;;2.60;1.00;;;;;;;;;;6250034;22;20068;-45
2022/10/27 12:21:09;;;;;;;2.33;0.80;;;;;;;;;;6264012;22;20047;-45
2022/10/27 12:23:38;;;;;;;2.25;0.60;;;;;;;;;;6263206;22;20021;-43
2022/10/27 12:26:07;;;;;;;2.22;0.63;;;;;;;;;;6264081;22;20454;-43
2022/10/27 12:28:34;;;;;;;4.68;0.68;;;;;;;;;;6259154;22;20026;-44
2022/10/27 12:31:02;;;;;;;2.73;0.93;;;;;;;;;;6261242;22;20068;-43
2022/10/27 12:33:31;;;;;;;3.20;0.95;;;;;;;;;;6265256;22;20588;-43
2022/10/27 12:36:03;;;;;;;4.32;0.90;;;;;;;;;;6269219;22;20026;-45
2022/10/27 12:38:32;;;;;;;2.60;1.02;;;;;;;;;;6247209;22;20015;-44
2022/10/27 12:41:02;;;;;;;1.92;0.50;;;;;;;;;;6268386;22;20015;-44
2022/10/27 12:43:33;;;;;;;2.20;0.70;;;;;;;;;;6265915;22;20015;-44
2022/10/27 12:46:08;;;;;;;1.63;0.40;;;;;;;;;;6255687;22;20029;-43
2022/10/27 12:48:36;;;;;;;2.45;0.80;;;;;;;;;;6260332;22;20015;-44
2022/10/27 12:51:11;;;;;;;2.28;0.75;;;;;;;;;;6263516;22;20018;-44
2022/10/27 12:53:40;;;;;;;2.20;0.75;;;;;;;;;;6258414;22;20072;-45
2022/10/27 12:56:11;;;;;;;5.27;1.30;;;;;;;;;;6264760;22;20038;-44
2022/10/27 12:58:40;;;;;;;4.47;0.93;;;;;;;;;;6248095;22;20027;-44
2022/10/27 13:01:15;;;;;;;2.10;0.63;;;;;;;;;;6262708;22;20392;-44
2022/10/27 13:03:50;;;;;;;1.92;0.55;;;;;;;;;;6262217;22;20503;-46
2022/10/27 13:06:31;;;;;;;4.93;0.98;;;;;;;;;;6235721;22;20632;-44
2022/10/27 13:09:25;;;;;;;4.33;0.60;;;;;;;;;;6254528;22;20456;-43
2022/10/27 13:11:59;;;;;;;1.80;0.47;;;;;;;;;;6262302;22;20018;-43
2022/10/27 13:14:33;;;;;;;2.53;0.90;;;;;;;;;;6268396;22;20019;-45
2022/10/27 13:17:04;;;;;;;2.22;0.80;;;;;;;;;;6236889;22;20015;-44
2022/10/27 13:19:35;;;;;;;2.58;1.25;;;;;;;;;;6230781;22;20852;-44
2022/10/27 13:22:06;;;;;;;2.20;0.70;;;;;;;;;;6236291;22;20031;-43
2022/10/27 13:24:36;;;;;;;2.20;0.70;;;;;;;;;;6266496;22;20041;-44
2022/10/27 13:27:05;;;;;;;1.92;0.45;;;;;;;;;;6260673;22;20537;-44
2022/10/27 13:29:37;;;;;;;4.25;0.70;;;;;;;;;;6259911;22;20011;-46
2022/10/27 13:32:16;;;;;;;3.58;0.90;;;;;;;;;;6265325;22;20169;-45
2022/10/27 13:34:43;;;;;;;2.47;0.70;;;;;;;;;;6262736;22;20014;-43
2022/10/27 13:37:28;;;;;;;2.42;0.88;;;;;;;;;;6261024;22;20023;-43
2022/10/27 13:39:57;;;;;;;3.63;1.08;;;;;;;;;;6258269;22;20249;-45
2022/10/27 13:42:25;;;;;;;3.47;1.25;;;;;;;;;;6264113;22;20019;-43
2022/10/27 13:44:51;;;;;;;5.95;1.25;;;;;;;;;;6269363;22;20016;-44
2022/10/27 13:47:18;;;;;;;2.73;0.93;;;;;;;;;;6257543;22;20020;-43
2022/10/27 13:50:00;;;;;;;7.72;1.25;;;;;;;;;;6228545;22;20395;-43
2022/10/27 13:52:28;;;;;;;2.95;1.00;;;;;;;;;;6263493;22;20019;-43
2022/10/27 13:54:57;;;;;;;3.00;1.00;;;;;;;;;;6260555;22;20070;-47
2022/10/27 13:57:53;;;;;;;3.35;0.70;;;;;;;;;;6266781;22;20015;-43
2022/10/27 14:00:20;;;;;;;5.77;1.07;;;;;;;;;;6257734;22;20056;-43
2022/10/27 14:02:52;;;;;;;1.92;0.55;;;;;;;;;;6228891;22;20140;-45
2022/10/27 14:05:22;;;;;;;2.38;1.00;;;;;;;;;;6270171;22;20026;-46
2022/10/27 14:07:48;;;;;;;2.53;0.90;;;;;;;;;;6264921;22;20428;-42
2022/10/27 14:10:16;;;;;;;3.35;1.25;;;;;;;;;;6264740;22;20030;-46
2022/10/27 14:12:43;;;;;;;4.70;1.30;;;;;;;;;;6258220;22;20571;-43
2022/10/27 14:15:16;;;;;;;2.38;0.85;;;;;;;;;;6267917;22;20026;-44
2022/10/27 14:17:44;;;;;;;5.68;1.55;;;;;;;;;;6258360;22;20090;-43
2022/10/27 14:20:17;;;;;;;4.13;0.90;;;;;;;;;;6258075;22;20021;-44
2022/10/27 14:22:47;;;;;;;2.15;0.70;;;;;;;;;;6264798;22;20015;-42
2022/10/27 14:25:17;;;;;;;3.23;0.97;;;;;;;;;;6271066;22;20108;-44
2022/10/27 14:27:44;;;;;;;3.33;1.40;;;;;;;;;;6261006;22;20070;-44
2022/10/27 14:30:15;;;;;;;2.47;0.88;;;;;;;;;;6262412;22;20011;-43
2022/10/27 14:32:41;;;;;;;2.45;0.75;;;;;;;;;;6271907;22;20011;-43
2022/10/27 14:35:15;;;;;;;3.42;1.13;;;;;;;;;;6263893;22;20011;-46
2022/10/27 14:37:42;;;;;;;3.90;1.47;;;;;;;;;;6264980;22;20109;-47
2022/10/27 14:40:13;;;;;;;3.63;1.38;;;;;;;;;;6258102;22;20015;-44
2022/10/27 14:42:41;;;;;;;2.50;1.10;;;;;;;;;;6269093;22;20433;-44
2022/10/27 14:45:12;;;;;;;3.42;1.25;;;;;;;;;;6269641;22;20445;-46
2022/10/27 14:47:40;;;;;;;2.80;0.73;;;;;;;;;;6265423;22;20023;-44
2022/10/27 14:50:11;;;;;;;2.40;0.70;;;;;;;;;;6266300;22;20011;-45
2022/10/27 14:52:40;;;;;;;2.40;0.85;;;;;;;;;;6238452;22;20413;-43